createdAt,value
2023-04-28T00:01:51.303Z,5.25
2023-04-28T00:06:56.700Z,4.87
2023-04-28T00:12:01.802Z,4.87
2023-04-28T00:17:06.205Z,4.35
2023-04-28T00:22:11.588Z,4.62
2023-04-28T00:27:15.596Z,4.76
2023-04-28T00:32:19.603Z,4.70
2023-04-28T00:37:24.936Z,4.44
2023-04-28T00:42:29.281Z,3.72
2023-04-28T00:47:33.920Z,3.38
2023-04-28T00:52:39.942Z,4.36
2023-04-28T00:57:44.379Z,2.83
2023-04-28T01:02:48.414Z,3.25
2023-04-28T01:07:54.324Z,4.00
2023-04-28T01:12:58.529Z,4.15
2023-04-28T01:18:02.567Z,3.64
2023-04-28T01:23:13.311Z,3.29
2023-04-28T01:28:19.024Z,4.05
2023-04-28T01:33:23.027Z,4.17
2023-04-28T01:38:27.127Z,4.89
2023-04-28T01:43:32.522Z,5.11
2023-04-28T01:48:36.700Z,4.10
2023-04-28T01:53:40.612Z,4.19
2023-04-28T01:58:46.379Z,4.14
2023-04-28T02:03:50.817Z,4.19
2023-04-28T02:08:55.047Z,4.05
2023-04-28T02:14:00.345Z,4.31
2023-04-28T02:19:04.352Z,4.19
2023-04-28T02:24:09.360Z,4.54
2023-04-28T02:29:14.586Z,4.05
2023-04-28T02:34:18.646Z,4.47
2023-04-28T02:39:25.399Z,4.65
2023-04-28T02:44:30.929Z,4.39
2023-04-28T02:49:34.835Z,4.10
2023-04-28T02:54:38.717Z,4.26
2023-04-28T02:59:44.536Z,4.18
2023-04-28T03:04:48.757Z,3.89
2023-04-28T03:09:52.930Z,3.87
2023-04-28T03:14:58.343Z,3.53
2023-04-28T03:20:02.342Z,3.79
2023-04-28T03:25:07.627Z,4.39
2023-04-28T03:30:20.322Z,4.35
2023-04-28T03:35:24.335Z,4.17
2023-04-28T03:40:28.691Z,4.39
2023-04-28T03:45:57.148Z,4.02
2023-04-28T03:51:01.527Z,4.39
2023-04-28T03:56:05.891Z,4.32
2023-04-28T04:01:11.540Z,4.40
2023-04-28T04:06:15.709Z,4.24
2023-04-28T04:11:19.774Z,4.72
2023-04-28T04:16:25.441Z,4.99
2023-04-28T04:21:33.039Z,5.30
2023-04-28T04:26:37.175Z,5.84
2023-04-28T04:31:54.491Z,5.88
2023-04-28T04:36:59.883Z,6.47
2023-04-28T04:42:16.802Z,6.20
2023-04-28T04:47:39.649Z,6.57
2023-04-28T04:52:43.664Z,6.79
2023-04-28T04:57:48.204Z,7.07
2023-04-28T05:03:16.961Z,6.66
2023-04-28T05:08:21.168Z,6.57
2023-04-28T05:13:25.219Z,6.40
2023-04-28T05:18:36.822Z,7.21
2023-04-28T05:23:41.063Z,7.07
2023-04-28T05:28:45.115Z,7.21
2023-04-28T05:33:50.494Z,7.33
2023-04-28T05:38:54.644Z,8.83
2023-04-28T05:43:59.203Z,9.15
2023-04-28T05:49:04.728Z,9.81
2023-04-28T05:54:12.747Z,10.06
2023-04-28T05:59:22.224Z,10.68
2023-04-28T06:04:27.955Z,10.55
2023-04-28T06:09:32.692Z,8.48
2023-04-28T06:14:37.937Z,9.23
2023-04-28T06:19:43.457Z,10.74
2023-04-28T06:24:47.933Z,11.65
2023-04-28T06:29:55.954Z,11.86
2023-04-28T06:35:01.195Z,11.50
2023-04-28T06:40:05.739Z,10.98
2023-04-28T06:45:11.060Z,11.38
2023-04-28T06:50:16.529Z,12.61
2023-04-28T06:55:20.709Z,12.59
2023-04-28T07:00:24.975Z,12.84
2023-04-28T07:05:30.311Z,13.10
2023-04-28T07:10:34.247Z,12.78
2023-04-28T07:15:38.181Z,12.78
2023-04-28T07:20:43.558Z,13.15
2023-04-28T07:25:47.558Z,13.19
2023-04-28T07:30:51.457Z,13.52
2023-04-28T07:35:56.878Z,13.16
2023-04-28T07:41:00.874Z,12.91
2023-04-28T07:46:05.070Z,13.49
2023-04-28T07:51:11.081Z,12.70
2023-04-28T07:56:15.104Z,13.01
2023-04-28T08:01:19.586Z,13.32
2023-04-28T08:06:25.149Z,12.93
2023-04-28T08:11:29.033Z,13.70
2023-04-28T08:16:36.622Z,14.60
2023-04-28T08:21:42.011Z,13.28
2023-04-28T08:26:46.256Z,12.98
2023-04-28T08:31:50.109Z,12.73
2023-04-28T08:36:55.442Z,13.40
2023-04-28T08:41:59.418Z,13.95
2023-04-28T08:47:06.175Z,13.88
2023-04-28T08:52:13.784Z,13.89
2023-04-28T08:57:18.533Z,11.44
2023-04-28T09:07:28.055Z,12.00
2023-04-28T09:12:38.575Z,11.38
2023-04-28T09:17:50.082Z,11.17
2023-04-28T09:22:56.854Z,14.05
2023-04-28T09:28:00.959Z,13.70
2023-04-28T09:33:07.369Z,13.97
2023-04-28T09:38:14.293Z,14.18
2023-04-28T09:43:24.559Z,14.20
2023-04-28T09:48:30.823Z,14.01
2023-04-28T09:53:36.708Z,14.63
2023-04-28T09:58:43.760Z,15.41
2023-04-28T10:03:49.173Z,16.35
2023-04-28T10:08:54.571Z,16.90
2023-04-28T10:13:58.548Z,17.49
2023-04-28T10:19:04.381Z,18.04
2023-04-28T10:24:17.119Z,16.14
2023-04-28T10:29:25.830Z,14.61
2023-04-28T10:34:31.462Z,13.54
2023-04-28T10:39:36.871Z,13.44
2023-04-28T10:44:44.838Z,12.84
2023-04-28T10:50:11.743Z,15.16
2023-04-28T10:55:36.563Z,15.99
2023-04-28T11:00:42.184Z,16.06
2023-04-28T11:06:19.362Z,15.68
2023-04-28T11:11:28.510Z,15.15
2023-04-28T11:16:33.412Z,15.60
2023-04-28T11:21:37.341Z,16.51
2023-04-28T11:26:43.867Z,16.28
2023-04-28T11:31:51.445Z,16.79
2023-04-28T11:36:56.066Z,17.33
2023-04-28T11:42:04.270Z,16.59
2023-04-28T11:47:08.782Z,17.21
2023-04-28T11:52:13.792Z,20.59
2023-04-28T11:57:23.327Z,22.73
2023-04-28T12:02:29.924Z,21.90
2023-04-28T12:07:43.844Z,18.79
2023-04-28T12:12:53.007Z,18.12
2023-04-28T12:18:10.603Z,21.09
2023-04-28T12:23:14.927Z,21.57
2023-04-28T12:28:20.280Z,21.85
2023-04-28T12:33:26.104Z,20.34
2023-04-28T12:38:30.208Z,21.59
2023-04-28T12:43:35.571Z,21.09
2023-04-28T12:48:39.726Z,22.63
2023-04-28T12:53:43.679Z,22.54
2023-04-28T12:58:48.905Z,22.94
2023-04-28T13:03:53.678Z,21.98
2023-04-28T13:08:57.712Z,22.17
2023-04-28T13:14:04.128Z,22.50
2023-04-28T13:19:10.754Z,20.90
2023-04-28T13:24:14.968Z,21.25
2023-04-28T13:29:20.615Z,19.90
2023-04-28T13:34:24.545Z,20.16
2023-04-28T13:39:28.676Z,20.49
2023-04-28T13:44:34.030Z,20.22
2023-04-28T13:49:39.889Z,19.83
2023-04-28T13:54:44.104Z,20.86
2023-04-28T13:59:50.244Z,21.66
2023-04-28T14:04:56.933Z,21.79
2023-04-28T14:10:01.173Z,23.60
2023-04-28T14:15:07.717Z,22.79
2023-04-28T14:20:12.255Z,23.11
2023-04-28T14:25:16.399Z,22.47
2023-04-28T14:30:23.045Z,23.00
2023-04-28T14:35:27.388Z,23.42
2023-04-28T14:40:31.547Z,23.50
2023-04-28T14:45:37.944Z,22.77
2023-04-28T14:50:44.655Z,21.70
2023-04-28T14:55:48.921Z,22.37
2023-04-28T15:00:54.364Z,21.34
2023-04-28T15:05:58.434Z,21.42
2023-04-28T15:11:02.827Z,22.20
2023-04-28T15:16:08.723Z,21.98
2023-04-28T15:21:13.086Z,21.74
2023-04-28T15:26:17.254Z,21.53
2023-04-28T15:31:23.918Z,19.25
2023-04-28T15:36:28.726Z,18.08
2023-04-28T15:41:32.730Z,18.71
2023-04-28T15:46:40.551Z,18.59
2023-04-28T15:51:45.227Z,18.51
2023-04-28T15:56:49.288Z,17.70
2023-04-28T16:01:55.567Z,17.80
2023-04-28T16:07:02.547Z,17.75
2023-04-28T16:12:06.762Z,16.72
2023-04-28T16:17:12.211Z,15.47
2023-04-28T16:22:16.193Z,14.38
2023-04-28T16:27:20.638Z,13.63
2023-04-28T16:32:26.419Z,13.80
2023-04-28T16:37:30.923Z,13.56
2023-04-28T16:42:34.893Z,12.99
2023-04-28T16:47:42.577Z,12.97
2023-04-28T16:52:46.832Z,13.32
2023-04-28T16:57:50.997Z,12.52
2023-04-28T17:02:56.965Z,12.41
2023-04-28T17:08:03.613Z,13.01
2023-04-28T17:13:09.986Z,12.98
2023-04-28T17:18:15.798Z,12.92
2023-04-28T17:23:20.001Z,12.89
2023-04-28T17:28:25.342Z,13.08
2023-04-28T17:33:30.935Z,13.05
2023-04-28T17:38:36.408Z,12.57
2023-04-28T17:43:40.835Z,12.17
2023-04-28T17:48:46.352Z,12.08
2023-04-28T17:53:50.465Z,11.89
2023-04-28T17:58:55.281Z,12.37
2023-04-28T18:04:00.634Z,11.93
2023-04-28T18:09:05.154Z,11.52
2023-04-28T18:14:09.290Z,11.36
2023-04-28T18:19:15.063Z,12.25
2023-04-28T18:24:22.006Z,11.62
2023-04-28T18:29:26.543Z,11.67
2023-04-28T18:34:31.922Z,11.30
2023-04-28T18:39:36.350Z,11.20
2023-04-28T18:44:40.927Z,11.42
2023-04-28T18:49:47.036Z,11.11
2023-04-28T18:54:51.233Z,11.38
2023-04-28T18:59:55.225Z,11.58
2023-04-28T19:05:05.712Z,11.71
2023-04-28T19:10:10.796Z,11.93
2023-04-28T19:15:15.018Z,11.24
2023-04-28T19:20:22.108Z,11.17
2023-04-28T19:25:26.081Z,11.05
2023-04-28T19:30:30.273Z,11.57
2023-04-28T19:35:35.830Z,11.20
2023-04-28T19:40:40.688Z,11.44
2023-04-28T19:45:45.097Z,11.01
2023-04-28T19:50:50.609Z,11.24
2023-04-28T19:55:54.827Z,10.82
2023-04-28T20:00:58.785Z,10.84
2023-04-28T20:06:04.162Z,10.60
2023-04-28T20:11:08.435Z,10.75
2023-04-28T20:16:12.590Z,10.63
2023-04-28T20:21:18.106Z,10.62
2023-04-28T20:26:22.500Z,10.71
2023-04-28T20:31:26.630Z,10.76
2023-04-28T20:36:35.307Z,10.12
2023-04-28T20:41:41.111Z,10.18
2023-04-28T20:46:46.408Z,10.42
2023-04-28T20:51:52.049Z,10.62
2023-04-28T20:56:56.190Z,10.69
2023-04-28T21:02:00.586Z,10.02
2023-04-28T21:07:06.211Z,10.19
2023-04-28T21:12:11.023Z,10.02
2023-04-28T21:17:15.085Z,9.59
2023-04-28T21:22:21.009Z,9.74
2023-04-28T21:27:24.943Z,10.41
2023-04-28T21:32:29.023Z,10.17
2023-04-28T21:37:34.533Z,10.47
2023-04-28T21:42:38.617Z,9.85
2023-04-28T21:47:43.684Z,10.57
2023-04-28T21:52:49.110Z,9.63
2023-04-28T21:57:54.112Z,9.73
2023-04-28T22:02:59.199Z,9.21
2023-04-28T22:08:05.849Z,9.47
2023-04-28T22:13:09.915Z,9.49
2023-04-28T22:18:14.331Z,7.99
2023-04-28T22:23:20.022Z,7.86
2023-04-28T22:28:24.559Z,8.09
2023-04-28T22:33:28.823Z,8.53
2023-04-28T22:38:34.461Z,8.75
2023-04-28T22:43:40.958Z,8.76
2023-04-28T22:48:45.308Z,8.49
2023-04-28T22:53:50.893Z,8.43
2023-04-28T22:58:54.994Z,8.46
2023-04-28T23:03:59.160Z,7.65
2023-04-28T23:09:05.440Z,7.96
2023-04-28T23:14:10.838Z,8.00
2023-04-28T23:19:15.066Z,7.73
2023-04-28T23:24:20.573Z,7.83
2023-04-28T23:29:24.505Z,7.81
2023-04-28T23:34:28.516Z,8.00
2023-04-28T23:39:34.060Z,8.13
2023-04-28T23:44:38.029Z,8.05
2023-04-28T23:49:42.259Z,8.09
2023-04-28T23:54:48.173Z,7.89
2023-04-28T23:59:52.347Z,8.16
